createdAt,value
2022-10-17T00:02:55.967Z,100743.03
2022-10-17T00:07:57.366Z,100745.94
2022-10-17T00:12:58.735Z,100749.97
2022-10-17T00:18:01.661Z,100761.00
2022-10-17T00:23:05.982Z,100763.72
2022-10-17T00:28:14.622Z,100765.38
2022-10-17T00:33:15.976Z,100771.41
2022-10-17T00:38:17.345Z,100764.34
2022-10-17T00:43:18.768Z,100767.88
2022-10-17T00:48:23.329Z,100774.56
2022-10-17T00:53:24.835Z,100768.06
2022-10-17T00:58:26.296Z,100764.34
2022-10-17T01:03:27.691Z,100774.78
2022-10-17T01:08:29.196Z,100778.53
2022-10-17T01:13:38.767Z,100777.06
2022-10-17T01:18:49.223Z,100781.19
2022-10-17T01:24:27.719Z,100774.91
2022-10-17T01:29:53.012Z,100781.78
2022-10-17T01:34:59.841Z,100769.63
2022-10-17T01:40:12.912Z,100781.28
2022-10-17T01:45:37.293Z,100779.78
2022-10-17T01:50:43.407Z,100780.38
2022-10-17T01:55:47.991Z,100766.38
2022-10-17T02:00:50.543Z,100768.47
2022-10-17T02:05:52.011Z,100772.78
2022-10-17T02:11:05.876Z,100775.28
2022-10-17T02:16:25.916Z,100769.59
2022-10-17T02:21:51.676Z,100773.09
2022-10-17T02:27:08.694Z,100776.59
2022-10-17T02:32:14.527Z,100768.84
2022-10-17T02:37:21.468Z,100776.34
2022-10-17T02:42:24.496Z,100782.16
2022-10-17T02:47:32.524Z,100786.28
2022-10-17T02:52:39.765Z,100780.22
2022-10-17T02:57:44.647Z,100777.44
2022-10-17T03:02:51.210Z,100781.84
2022-10-17T03:07:54.087Z,100783.66
2022-10-17T03:12:56.581Z,100787.31
2022-10-17T03:17:57.975Z,100787.13
2022-10-17T03:22:59.779Z,100793.13
2022-10-17T03:28:01.590Z,100795.38
2022-10-17T03:33:02.994Z,100806.22
2022-10-17T03:38:04.430Z,100810.34
2022-10-17T03:43:05.924Z,100811.16
2022-10-17T03:48:07.291Z,100822.19
2022-10-17T03:53:08.691Z,100826.50
2022-10-17T03:58:10.066Z,100825.00
2022-10-17T04:03:16.352Z,100835.47
2022-10-17T04:08:18.669Z,100843.94
2022-10-17T04:13:20.025Z,100847.50
2022-10-17T04:18:21.462Z,100853.09
2022-10-17T04:23:23.208Z,100848.06
2022-10-17T04:28:26.321Z,100839.56
2022-10-17T04:33:28.124Z,100842.94
2022-10-17T04:38:30.469Z,100841.25
2022-10-17T04:43:34.615Z,100839.19
2022-10-17T04:48:36.622Z,100851.72
2022-10-17T04:53:39.604Z,100851.88
2022-10-17T04:58:41.990Z,100853.56
2022-10-17T05:03:44.091Z,100857.47
2022-10-17T05:08:46.020Z,100861.19
2022-10-17T05:13:51.556Z,100871.59
2022-10-17T05:18:55.189Z,100874.84
2022-10-17T05:23:56.643Z,100869.25
2022-10-17T05:29:00.453Z,100859.84
2022-10-17T05:34:03.247Z,100858.50
2022-10-17T05:39:04.666Z,100871.41
2022-10-17T05:44:06.070Z,100878.22
2022-10-17T05:49:14.901Z,100879.03
2022-10-17T05:54:20.842Z,100879.03
2022-10-17T05:59:22.275Z,100868.69
2022-10-17T06:04:23.775Z,100884.44
2022-10-17T06:09:25.178Z,100894.91
2022-10-17T06:14:26.584Z,100883.03
2022-10-17T06:19:28.092Z,100885.56
2022-10-17T06:24:29.466Z,100884.84
2022-10-17T06:29:30.823Z,100889.50
2022-10-17T06:34:32.188Z,100893.31
2022-10-17T06:39:35.065Z,100900.03
2022-10-17T06:44:36.595Z,100908.03
2022-10-17T06:49:37.953Z,100920.44
2022-10-17T06:54:39.320Z,100928.25
2022-10-17T06:59:40.931Z,100925.41
2022-10-17T07:04:42.573Z,100934.06
2022-10-17T07:09:44.069Z,100932.72
2022-10-17T07:14:47.279Z,100927.00
2022-10-17T07:19:48.744Z,100929.81
2022-10-17T07:29:51.494Z,100944.09
2022-10-17T07:34:52.923Z,100950.22
2022-10-17T07:39:54.359Z,100966.22
2022-10-17T07:44:55.797Z,100960.47
2022-10-17T07:49:57.817Z,100965.19
2022-10-17T07:54:59.715Z,100972.63
2022-10-17T08:00:01.129Z,100967.50
2022-10-17T08:05:02.792Z,100956.31
2022-10-17T08:10:04.979Z,100968.28
2022-10-17T08:15:07.580Z,100970.84
2022-10-17T08:20:10.415Z,100955.41
2022-10-17T08:25:11.862Z,100955.81
2022-10-17T08:30:13.678Z,100958.69
2022-10-17T08:35:15.261Z,100958.28
2022-10-17T08:40:24.434Z,100966.81
2022-10-17T08:45:35.810Z,100956.50
2022-10-17T08:50:44.274Z,100959.81
2022-10-17T08:55:47.910Z,100956.84
2022-10-17T09:01:01.084Z,100948.34
2022-10-17T09:06:15.041Z,100947.84
2022-10-17T09:11:43.215Z,100952.59
2022-10-17T09:17:08.669Z,100957.50
2022-10-17T09:22:18.824Z,100957.25
2022-10-17T09:27:27.921Z,100969.38
2022-10-17T09:32:29.734Z,100979.97
2022-10-17T09:37:32.811Z,100970.41
2022-10-17T09:42:35.554Z,100958.69
2022-10-17T09:48:01.896Z,100969.09
2022-10-17T09:53:25.398Z,100973.38
2022-10-17T09:58:57.194Z,100981.84
2022-10-17T10:04:17.680Z,100986.94
2022-10-17T10:09:25.536Z,100988.56
2022-10-17T10:14:36.910Z,100993.88
2022-10-17T10:19:39.129Z,100990.03
2022-10-17T10:24:40.642Z,101000.44
2022-10-17T10:29:52.573Z,101004.06
2022-10-17T10:35:05.863Z,101002.69
2022-10-17T10:40:24.906Z,100997.50
2022-10-17T10:45:47.843Z,100995.25
2022-10-17T10:50:56.783Z,100990.03
2022-10-17T10:56:19.813Z,100986.56
2022-10-17T11:01:56.604Z,100986.97
2022-10-17T11:07:07.182Z,100997.69
2022-10-17T11:12:19.688Z,101004.81
2022-10-17T11:17:33.231Z,100992.44
2022-10-17T11:22:42.107Z,101005.41
2022-10-17T11:27:43.471Z,101015.06
2022-10-17T11:32:57.799Z,101004.69
2022-10-17T11:38:18.578Z,101008.25
2022-10-17T11:43:42.725Z,101000.34
2022-10-17T11:49:19.823Z,100999.34
2022-10-17T11:54:30.235Z,101002.56
2022-10-17T11:59:46.984Z,101008.75
2022-10-17T12:05:09.907Z,101002.72
2022-10-17T12:10:37.316Z,101004.47
2022-10-17T12:15:38.820Z,101001.41
2022-10-17T12:20:40.379Z,100988.63
2022-10-17T12:25:50.946Z,100981.47
2022-10-17T12:31:29.768Z,100988.66
2022-10-17T12:36:34.839Z,100993.50
2022-10-17T12:41:39.310Z,100990.91
2022-10-17T12:47:19.288Z,100999.19
2022-10-17T12:52:34.986Z,101008.41
2022-10-17T12:57:50.378Z,101011.25
2022-10-17T13:02:55.338Z,101009.25
2022-10-17T13:07:59.970Z,101005.34
2022-10-17T13:13:45.143Z,101004.41
2022-10-17T13:18:53.225Z,101000.56
2022-10-17T13:23:54.829Z,101002.03
2022-10-17T13:29:11.202Z,101007.38
2022-10-17T13:34:18.549Z,101008.06
2022-10-17T13:39:52.555Z,101011.09
2022-10-17T13:44:56.229Z,101016.03
2022-10-17T13:49:58.284Z,101019.78
2022-10-17T13:55:17.563Z,101024.25
2022-10-17T14:00:21.603Z,101026.41
2022-10-17T14:05:23.679Z,101018.22
2022-10-17T14:10:30.438Z,101015.31
2022-10-17T14:15:34.679Z,101026.81
2022-10-17T14:26:18.229Z,101025.22
2022-10-17T14:31:26.147Z,101029.38
2022-10-17T14:36:44.207Z,101035.75
2022-10-17T14:41:47.006Z,101032.34
2022-10-17T14:46:53.859Z,101035.50
2022-10-17T14:52:17.634Z,101039.84
2022-10-17T14:57:25.811Z,101043.41
2022-10-17T15:02:30.132Z,101046.22
2022-10-17T15:07:31.882Z,101058.28
2022-10-17T15:12:33.260Z,101058.25
2022-10-17T15:17:34.726Z,101063.84
2022-10-17T15:22:36.570Z,101075.16
2022-10-17T15:27:38.090Z,101073.50
2022-10-17T15:32:39.529Z,101085.03
2022-10-17T15:37:42.707Z,101074.72
2022-10-17T15:42:44.541Z,101079.44
2022-10-17T15:47:52.651Z,101070.97
2022-10-17T15:52:54.143Z,101067.97
2022-10-17T15:57:55.769Z,101070.94
2022-10-17T16:02:59.364Z,101079.47
2022-10-17T16:08:00.790Z,101081.66
2022-10-17T16:13:02.315Z,101093.72
2022-10-17T16:18:06.632Z,101096.72
2022-10-17T16:23:12.530Z,101100.22
2022-10-17T16:28:13.914Z,101097.31
2022-10-17T16:33:15.336Z,101115.53
2022-10-17T16:38:16.734Z,101113.56
2022-10-17T16:43:18.097Z,101119.91
2022-10-17T16:48:19.514Z,101126.25
2022-10-17T16:53:20.875Z,101130.31
2022-10-17T16:58:24.529Z,101138.16
2022-10-17T17:03:25.906Z,101147.13
2022-10-17T17:08:27.251Z,101148.66
2022-10-17T17:13:29.685Z,101148.25
2022-10-17T17:18:31.583Z,101159.66
2022-10-17T17:23:35.123Z,101155.78
2022-10-17T17:28:37.222Z,101153.38
2022-10-17T17:33:39.868Z,101155.16
2022-10-17T17:38:41.261Z,101172.28
2022-10-17T17:43:43.968Z,101163.75
2022-10-17T17:48:47.019Z,101166.44
2022-10-17T17:53:48.787Z,101172.13
2022-10-17T17:59:01.587Z,101171.72
2022-10-17T18:04:04.848Z,101181.06
2022-10-17T18:09:07.600Z,101180.56
2022-10-17T18:14:11.835Z,101193.16
2022-10-17T18:19:13.228Z,101193.03
2022-10-17T18:24:14.568Z,101195.56
2022-10-17T18:29:16.010Z,101204.19
2022-10-17T18:34:17.416Z,101211.25
2022-10-17T18:39:18.762Z,101217.72
2022-10-17T18:44:20.341Z,101213.47
2022-10-17T18:49:25.088Z,101215.13
2022-10-17T18:54:26.723Z,101214.09
2022-10-17T18:59:28.305Z,101216.00
2022-10-17T19:04:29.665Z,101215.34
2022-10-17T19:09:31.104Z,101222.72
2022-10-17T19:14:32.505Z,101222.09
2022-10-17T19:19:34.091Z,101216.25
2022-10-17T19:24:35.487Z,101212.53
2022-10-17T19:29:36.823Z,101207.56
2022-10-17T19:34:38.267Z,101208.41
2022-10-17T19:39:39.674Z,101195.25
2022-10-17T19:44:41.006Z,101201.13
2022-10-17T19:49:45.362Z,101201.41
2022-10-17T19:54:49.075Z,101202.50
2022-10-17T19:59:52.458Z,101204.88
2022-10-17T20:05:17.118Z,101195.81
2022-10-17T20:10:18.870Z,101199.63
2022-10-17T20:15:20.234Z,101197.72
2022-10-17T20:20:21.783Z,101199.84
2022-10-17T20:25:23.292Z,101204.69
2022-10-17T20:30:24.736Z,101202.16
2022-10-17T20:35:26.199Z,101220.50
2022-10-17T20:40:35.013Z,101236.97
2022-10-17T20:45:50.881Z,101236.91
2022-10-17T20:50:53.725Z,101236.25
2022-10-17T20:56:07.091Z,101224.09
2022-10-17T21:01:10.157Z,101226.38
2022-10-17T21:06:11.802Z,101229.09
2022-10-17T21:11:21.299Z,101230.38
2022-10-17T21:16:22.936Z,101231.22
2022-10-17T21:21:27.868Z,101233.31
2022-10-17T21:26:31.995Z,101241.31
2022-10-17T21:31:38.951Z,101242.16
2022-10-17T21:36:40.497Z,101223.69
2022-10-17T21:41:42.780Z,101219.25
2022-10-17T21:46:45.264Z,101223.66
2022-10-17T21:51:47.798Z,101218.63
2022-10-17T21:56:50.031Z,101219.47
2022-10-17T22:01:51.413Z,101223.69
2022-10-17T22:06:53.273Z,101218.66
2022-10-17T22:11:56.638Z,101217.41
2022-10-17T22:16:58.024Z,101229.59
2022-10-17T22:21:59.402Z,101233.81
2022-10-17T22:27:00.788Z,101234.66
2022-10-17T22:32:02.191Z,101222.03
2022-10-17T22:37:03.569Z,101216.81
2022-10-17T22:42:04.914Z,101220.19
2022-10-17T22:47:06.360Z,101219.97
2022-10-17T22:52:07.772Z,101218.06
2022-10-17T22:57:09.113Z,101214.72
2022-10-17T23:02:10.556Z,101212.41
2022-10-17T23:07:14.078Z,101197.69
2022-10-17T23:12:15.414Z,101196.03
2022-10-17T23:17:17.103Z,101201.50
2022-10-17T23:22:18.434Z,101200.00
2022-10-17T23:27:19.783Z,101198.97
2022-10-17T23:32:21.384Z,101186.78
2022-10-17T23:37:22.736Z,101189.91
2022-10-17T23:42:24.135Z,101197.28
2022-10-17T23:47:25.489Z,101204.00
2022-10-17T23:52:26.824Z,101202.31
2022-10-17T23:57:28.552Z,101212.56
